createdAt,value
2018-02-09T00:02:04.565Z,3.80
2018-02-09T00:04:30.911Z,3.80
2018-02-09T00:06:57.169Z,3.70
2018-02-09T00:09:23.834Z,3.40
2018-02-09T00:11:50.109Z,3.40
2018-02-09T00:14:16.411Z,3.40
2018-02-09T00:16:42.787Z,3.40
2018-02-09T00:19:09.377Z,3.60
2018-02-09T00:21:35.621Z,3.60
2018-02-09T00:24:01.913Z,3.70
2018-02-09T00:26:28.163Z,3.50
2018-02-09T00:28:54.470Z,3.60
2018-02-09T00:31:20.800Z,3.60
2018-02-09T00:33:47.503Z,3.40
2018-02-09T00:36:13.743Z,3.40
2018-02-09T00:38:40.433Z,3.40
2018-02-09T00:41:06.669Z,3.40
2018-02-09T00:43:32.865Z,3.40
2018-02-09T00:45:59.226Z,3.40
2018-02-09T00:48:25.427Z,3.50
2018-02-09T00:50:51.651Z,3.60
2018-02-09T00:53:17.884Z,3.60
2018-02-09T00:55:44.209Z,3.50
2018-02-09T00:58:10.413Z,3.50
2018-02-09T01:00:36.681Z,3.50
2018-02-09T01:03:02.913Z,3.60
2018-02-09T01:05:29.113Z,3.60
2018-02-09T01:07:55.353Z,3.60
2018-02-09T01:10:21.606Z,3.60
2018-02-09T01:12:48.353Z,3.40
2018-02-09T01:15:14.678Z,3.30
2018-02-09T01:17:40.883Z,3.30
2018-02-09T01:20:07.097Z,3.10
2018-02-09T01:22:34.023Z,2.80
2018-02-09T01:25:00.350Z,2.70
2018-02-09T01:27:26.623Z,2.80
2018-02-09T01:29:52.891Z,2.90
2018-02-09T01:32:19.228Z,2.90
2018-02-09T01:34:45.849Z,3.10
2018-02-09T01:37:12.102Z,3.10
2018-02-09T01:39:38.417Z,3.20
2018-02-09T01:42:05.016Z,3.20
2018-02-09T01:44:31.287Z,3.30
2018-02-09T01:46:58.184Z,3.40
2018-02-09T01:49:24.414Z,3.40
2018-02-09T01:51:50.666Z,3.40
2018-02-09T01:54:16.971Z,3.40
2018-02-09T01:56:43.205Z,3.40
2018-02-09T01:59:09.426Z,3.40
2018-02-09T02:01:35.651Z,3.40
2018-02-09T02:04:01.943Z,3.30
2018-02-09T02:06:28.213Z,3.30
2018-02-09T02:08:54.426Z,3.30
2018-02-09T02:11:20.659Z,3.40
2018-02-09T02:13:47.667Z,3.30
2018-02-09T02:16:14.308Z,3.10
2018-02-09T02:18:40.546Z,3.10
2018-02-09T02:21:06.823Z,3.20
2018-02-09T02:23:33.071Z,3.10
2018-02-09T02:25:59.288Z,3.20
2018-02-09T02:28:25.500Z,3.20
2018-02-09T02:30:51.727Z,3.30
2018-02-09T02:33:18.774Z,3.30
2018-02-09T02:35:45.016Z,3.00
2018-02-09T02:38:11.333Z,3.10
2018-02-09T02:40:37.560Z,3.30
2018-02-09T02:43:03.868Z,3.30
2018-02-09T02:45:30.057Z,3.30
2018-02-09T02:47:56.673Z,3.10
2018-02-09T02:50:22.880Z,3.10
2018-02-09T02:52:49.207Z,3.20
2018-02-09T02:55:15.492Z,3.20
2018-02-09T02:57:42.093Z,3.30
2018-02-09T03:00:08.371Z,3.30
2018-02-09T03:02:34.613Z,3.30
2018-02-09T03:05:00.860Z,3.40
2018-02-09T03:07:27.073Z,3.50
2018-02-09T03:09:53.263Z,3.50
2018-02-09T03:12:19.933Z,3.20
2018-02-09T03:14:46.146Z,3.20
2018-02-09T03:17:12.405Z,3.20
2018-02-09T03:19:38.619Z,3.30
2018-02-09T03:22:04.819Z,3.50
2018-02-09T03:24:31.398Z,3.40
2018-02-09T03:26:57.627Z,3.40
2018-02-09T03:29:23.893Z,3.50
2018-02-09T03:31:50.575Z,3.40
2018-02-09T03:34:16.811Z,3.40
2018-02-09T03:36:43.103Z,3.30
2018-02-09T03:39:09.686Z,2.90
2018-02-09T03:41:35.998Z,3.00
2018-02-09T03:44:02.381Z,3.00
2018-02-09T03:46:28.660Z,3.00
2018-02-09T03:48:54.991Z,3.00
2018-02-09T03:51:21.413Z,3.00
2018-02-09T03:53:47.680Z,3.00
2018-02-09T03:56:13.914Z,3.00
2018-02-09T03:58:40.169Z,3.00
2018-02-09T04:01:06.433Z,3.00
2018-02-09T04:03:32.699Z,3.10
2018-02-09T04:05:59.046Z,3.10
2018-02-09T04:08:25.301Z,3.20
2018-02-09T04:10:51.547Z,3.30
2018-02-09T04:13:17.897Z,3.20
2018-02-09T04:15:44.211Z,3.20
2018-02-09T04:18:10.545Z,3.10
2018-02-09T04:20:36.766Z,3.00
2018-02-09T04:23:02.994Z,3.10
2018-02-09T04:25:29.362Z,3.20
2018-02-09T04:27:55.736Z,3.10
2018-02-09T04:30:22.128Z,2.90
2018-02-09T04:32:48.397Z,2.90
2018-02-09T04:35:14.694Z,2.90
2018-02-09T04:37:40.949Z,2.90
2018-02-09T04:40:07.209Z,3.00
2018-02-09T04:42:33.542Z,3.00
2018-02-09T04:44:59.764Z,2.90
2018-02-09T04:47:25.972Z,3.00
2018-02-09T04:49:52.567Z,2.70
2018-02-09T04:52:18.820Z,2.80
2018-02-09T04:54:45.048Z,2.80
2018-02-09T04:57:11.743Z,3.00
2018-02-09T04:59:38.021Z,3.00
2018-02-09T05:02:05.214Z,3.10
2018-02-09T05:04:31.545Z,2.80
2018-02-09T05:06:57.949Z,2.70
2018-02-09T05:09:24.172Z,2.80
2018-02-09T05:11:50.549Z,2.60
2018-02-09T05:14:16.802Z,2.60
2018-02-09T05:16:43.400Z,2.90
2018-02-09T05:19:09.724Z,2.90
2018-02-09T05:21:35.939Z,3.00
2018-02-09T05:24:02.200Z,3.10
2018-02-09T05:26:28.479Z,2.90
2018-02-09T05:28:55.166Z,2.90
2018-02-09T05:31:21.432Z,2.90
2018-02-09T05:33:48.051Z,3.10
2018-02-09T05:36:14.380Z,3.10
2018-02-09T05:38:40.799Z,3.00
2018-02-09T05:41:07.223Z,3.00
2018-02-09T05:43:33.424Z,3.10
2018-02-09T05:45:59.751Z,2.90
2018-02-09T05:48:25.996Z,2.60
2018-02-09T05:50:52.195Z,2.40
2018-02-09T05:53:18.564Z,2.50
2018-02-09T05:55:44.826Z,2.40
2018-02-09T05:58:11.021Z,2.40
2018-02-09T06:00:37.260Z,2.60
2018-02-09T06:03:03.674Z,2.70
2018-02-09T06:05:30.009Z,2.90
2018-02-09T06:07:56.219Z,3.00
2018-02-09T06:10:22.434Z,3.00
2018-02-09T06:12:48.749Z,3.00
2018-02-09T06:15:15.345Z,3.00
2018-02-09T06:17:41.564Z,3.00
2018-02-09T06:20:07.771Z,3.00
2018-02-09T06:22:33.991Z,3.00
2018-02-09T06:25:00.225Z,2.90
2018-02-09T06:27:26.447Z,2.90
2018-02-09T06:29:52.688Z,2.80
2018-02-09T06:32:18.929Z,2.90
2018-02-09T06:34:45.186Z,3.00
2018-02-09T06:37:11.489Z,2.90
2018-02-09T06:39:37.719Z,2.90
2018-02-09T06:42:03.925Z,2.80
2018-02-09T06:44:30.149Z,2.70
2018-02-09T06:46:56.407Z,2.80
2018-02-09T06:49:23.571Z,2.80
2018-02-09T06:51:49.877Z,3.00
2018-02-09T06:54:16.089Z,3.00
2018-02-09T06:56:42.285Z,3.20
2018-02-09T06:59:08.889Z,3.10
2018-02-09T07:01:35.076Z,3.10
2018-02-09T07:04:01.314Z,2.80
2018-02-09T07:06:27.563Z,2.70
2018-02-09T07:08:53.804Z,2.90
2018-02-09T07:11:20.073Z,2.70
2018-02-09T07:13:46.701Z,2.90
2018-02-09T07:16:13.322Z,2.90
2018-02-09T07:18:39.533Z,2.90
2018-02-09T07:21:05.801Z,2.50
2018-02-09T07:23:32.373Z,2.70
2018-02-09T07:25:58.609Z,2.70
2018-02-09T07:28:24.841Z,2.80
2018-02-09T07:30:51.050Z,2.60
2018-02-09T07:33:18.231Z,2.60
2018-02-09T07:35:44.456Z,2.60
2018-02-09T07:38:10.670Z,2.90
2018-02-09T07:40:37.039Z,3.00
2018-02-09T07:43:03.252Z,3.20
2018-02-09T07:45:29.468Z,3.20
2018-02-09T07:47:55.687Z,3.00
2018-02-09T07:50:21.894Z,3.00
2018-02-09T07:52:48.497Z,3.00
2018-02-09T07:55:14.794Z,3.00
2018-02-09T07:57:41.030Z,2.90
2018-02-09T08:00:07.695Z,3.10
2018-02-09T08:02:34.273Z,3.20
2018-02-09T08:05:00.487Z,3.20
2018-02-09T08:07:26.737Z,3.10
2018-02-09T08:09:52.929Z,3.10
2018-02-09T08:12:19.220Z,3.20
2018-02-09T08:14:45.521Z,3.20
2018-02-09T08:17:11.760Z,3.20
2018-02-09T08:19:37.969Z,3.00
2018-02-09T08:22:05.315Z,3.00
2018-02-09T08:24:31.553Z,3.10
2018-02-09T08:26:57.745Z,3.20
2018-02-09T08:29:24.332Z,2.80
2018-02-09T08:31:50.629Z,2.80
2018-02-09T08:34:16.909Z,3.00
2018-02-09T08:36:43.139Z,3.20
2018-02-09T08:39:09.395Z,3.20
2018-02-09T08:41:36.042Z,3.40
2018-02-09T08:44:02.470Z,3.40
2018-02-09T08:46:29.506Z,3.20
2018-02-09T08:48:56.112Z,3.30
2018-02-09T08:51:22.333Z,3.30
2018-02-09T08:53:48.764Z,3.40
2018-02-09T08:56:14.990Z,3.50
2018-02-09T08:58:42.038Z,3.30
2018-02-09T09:01:08.268Z,3.20
2018-02-09T09:03:34.531Z,3.30
2018-02-09T09:06:01.152Z,3.50
2018-02-09T09:08:27.531Z,3.50
2018-02-09T09:10:53.905Z,3.70
2018-02-09T09:13:20.198Z,3.80
2018-02-09T09:15:46.573Z,3.70
2018-02-09T09:18:12.955Z,3.60
2018-02-09T09:20:39.263Z,3.50
2018-02-09T09:23:05.921Z,3.70
2018-02-09T09:25:32.177Z,3.70
2018-02-09T09:27:58.424Z,3.70
2018-02-09T09:30:24.711Z,3.50
2018-02-09T09:32:51.141Z,3.10
2018-02-09T09:35:17.488Z,3.30
2018-02-09T09:37:43.754Z,3.20
2018-02-09T09:40:10.215Z,3.20
2018-02-09T09:42:37.018Z,3.10
2018-02-09T09:45:03.297Z,3.20
2018-02-09T09:47:29.574Z,3.60
2018-02-09T09:49:55.799Z,3.80
2018-02-09T09:52:22.041Z,3.50
2018-02-09T09:54:48.320Z,3.50
2018-02-09T09:57:14.537Z,3.60
2018-02-09T09:59:40.779Z,3.80
2018-02-09T10:02:07.039Z,3.80
2018-02-09T10:04:33.270Z,3.80
2018-02-09T10:06:59.506Z,3.30
2018-02-09T10:12:26.689Z,3.70
2018-02-09T10:14:52.915Z,3.70
2018-02-09T10:17:19.159Z,3.90
2018-02-09T10:19:45.406Z,3.70
2018-02-09T10:22:11.698Z,3.30
2018-02-09T10:24:38.619Z,3.30
2018-02-09T10:27:06.467Z,3.40
2018-02-09T10:29:32.711Z,2.80
2018-02-09T10:31:58.942Z,2.90
2018-02-09T10:34:25.254Z,3.10
2018-02-09T10:36:51.509Z,3.50
2018-02-09T10:39:17.848Z,3.60
2018-02-09T10:41:44.247Z,3.40
2018-02-09T10:44:10.489Z,3.60
2018-02-09T10:46:36.794Z,3.60
2018-02-09T10:49:03.026Z,3.60
2018-02-09T10:51:29.243Z,3.40
2018-02-09T10:53:55.458Z,3.30
2018-02-09T10:56:21.808Z,3.20
2018-02-09T10:58:48.054Z,3.40
2018-02-09T11:01:20.498Z,3.60
2018-02-09T11:03:46.720Z,3.50
2018-02-09T11:06:13.926Z,3.60
2018-02-09T11:08:40.208Z,3.80
2018-02-09T11:11:06.538Z,3.70
2018-02-09T11:13:36.767Z,3.80
2018-02-09T11:16:03.033Z,4.00
2018-02-09T11:18:29.932Z,4.30
2018-02-09T11:20:56.227Z,4.40
2018-02-09T11:23:22.538Z,4.40
2018-02-09T11:25:48.763Z,4.30
2018-02-09T11:28:14.978Z,4.30
2018-02-09T11:30:41.281Z,4.50
2018-02-09T11:33:07.521Z,4.60
2018-02-09T11:35:33.764Z,4.60
2018-02-09T11:38:00.037Z,4.60
2018-02-09T11:40:26.262Z,4.50
2018-02-09T11:42:52.508Z,4.40
2018-02-09T11:45:18.788Z,4.70
2018-02-09T11:47:45.038Z,5.00
2018-02-09T11:50:11.666Z,5.30
2018-02-09T11:52:37.897Z,5.40
2018-02-09T11:55:04.150Z,5.50
2018-02-09T11:57:30.722Z,5.60
2018-02-09T11:59:57.952Z,5.50
2018-02-09T12:02:24.939Z,5.60
2018-02-09T12:04:51.218Z,5.60
2018-02-09T12:07:17.791Z,5.60
2018-02-09T12:09:44.004Z,5.50
2018-02-09T12:12:10.246Z,5.60
2018-02-09T12:14:36.501Z,5.70
2018-02-09T12:17:02.750Z,5.80
2018-02-09T12:19:28.967Z,5.80
2018-02-09T12:21:55.451Z,5.70
2018-02-09T12:24:21.659Z,5.70
2018-02-09T12:26:47.894Z,5.70
2018-02-09T12:29:14.296Z,5.70
2018-02-09T12:31:40.702Z,5.80
2018-02-09T12:34:06.983Z,5.70
2018-02-09T12:36:33.252Z,5.30
2018-02-09T12:38:59.544Z,5.30
2018-02-09T12:41:25.824Z,5.20
2018-02-09T12:43:52.190Z,4.80
2018-02-09T12:46:18.811Z,4.80
2018-02-09T12:48:45.034Z,4.90
2018-02-09T12:51:11.412Z,4.90
2018-02-09T12:53:37.670Z,4.70
2018-02-09T12:56:03.883Z,5.00
2018-02-09T12:58:30.103Z,5.20
2018-02-09T13:00:56.320Z,5.20
2018-02-09T13:03:22.622Z,4.40
2018-02-09T13:05:49.254Z,4.60
2018-02-09T13:08:15.882Z,4.70
2018-02-09T13:10:42.132Z,4.70
2018-02-09T13:13:09.622Z,4.80
2018-02-09T13:15:35.821Z,4.80
2018-02-09T13:18:02.404Z,5.10
2018-02-09T13:20:28.667Z,5.00
2018-02-09T13:23:07.440Z,5.10
2018-02-09T13:25:33.733Z,5.40
2018-02-09T13:28:00.358Z,4.60
2018-02-09T13:30:26.641Z,4.60
2018-02-09T13:33:05.008Z,4.50
2018-02-09T13:35:31.615Z,4.70
2018-02-09T13:37:57.885Z,4.70
2018-02-09T13:40:24.501Z,5.10
2018-02-09T13:42:51.571Z,5.20
2018-02-09T13:45:18.158Z,5.20
2018-02-09T13:47:44.365Z,5.20
2018-02-09T13:50:10.600Z,5.20
2018-02-09T13:52:36.878Z,5.20
2018-02-09T13:55:03.515Z,5.30
2018-02-09T13:57:30.276Z,5.40
2018-02-09T13:59:56.478Z,5.40
2018-02-09T14:02:22.833Z,5.50
2018-02-09T14:04:49.061Z,5.70
2018-02-09T14:07:15.338Z,5.80
2018-02-09T14:09:41.616Z,5.80
2018-02-09T14:12:08.407Z,5.90
2018-02-09T14:14:34.677Z,6.10
2018-02-09T14:17:01.307Z,5.90
2018-02-09T14:19:27.551Z,5.90
2018-02-09T14:21:53.799Z,5.70
2018-02-09T14:24:20.058Z,5.70
2018-02-09T14:26:46.271Z,5.70
2018-02-09T14:29:12.515Z,5.60
2018-02-09T14:31:39.183Z,5.70
2018-02-09T14:34:06.518Z,5.80
2018-02-09T14:36:32.733Z,5.80
2018-02-09T14:38:58.963Z,5.80
2018-02-09T14:41:25.187Z,5.80
2018-02-09T14:43:51.731Z,5.60
2018-02-09T14:46:17.922Z,5.50
2018-02-09T14:48:44.142Z,5.50
2018-02-09T14:51:11.366Z,5.30
2018-02-09T14:53:37.965Z,5.20
2018-02-09T14:56:04.163Z,5.20
2018-02-09T14:58:30.430Z,5.20
2018-02-09T15:00:56.767Z,5.20
2018-02-09T15:03:23.680Z,5.20
2018-02-09T15:05:49.942Z,5.30
2018-02-09T15:08:16.141Z,5.30
2018-02-09T15:10:43.262Z,5.30
2018-02-09T15:13:11.089Z,5.30
2018-02-09T15:19:35.400Z,5.10
2018-02-09T15:22:01.677Z,5.20
2018-02-09T15:24:28.160Z,5.30
2018-02-09T15:26:54.413Z,5.20
2018-02-09T15:29:21.164Z,5.20
2018-02-09T15:31:47.389Z,5.30
2018-02-09T15:34:13.688Z,5.20
2018-02-09T15:36:39.998Z,5.20
2018-02-09T15:39:06.232Z,5.30
2018-02-09T15:41:32.540Z,5.20
2018-02-09T15:43:58.763Z,5.20
2018-02-09T15:46:25.045Z,5.10
2018-02-09T15:48:51.772Z,5.10
2018-02-09T15:51:18.123Z,5.10
2018-02-09T15:53:44.806Z,5.10
2018-02-09T15:56:11.242Z,5.10
2018-02-09T15:58:37.516Z,5.00
2018-02-09T16:01:04.133Z,4.90
2018-02-09T16:03:30.489Z,4.80
2018-02-09T16:05:57.275Z,5.10
2018-02-09T16:08:23.976Z,5.10
2018-02-09T16:10:50.563Z,5.10
2018-02-09T16:13:16.813Z,5.00
2018-02-09T16:15:43.118Z,5.10
2018-02-09T16:18:09.396Z,5.10
2018-02-09T16:20:36.060Z,5.00
2018-02-09T16:23:02.371Z,5.00
2018-02-09T16:25:28.601Z,5.10
2018-02-09T16:27:54.910Z,5.10
2018-02-09T16:30:21.539Z,5.10
2018-02-09T16:32:47.825Z,5.00
2018-02-09T16:35:28.225Z,5.00
2018-02-09T16:37:55.648Z,4.90
2018-02-09T16:40:21.937Z,4.80
2018-02-09T16:42:48.213Z,4.80
2018-02-09T16:45:14.579Z,4.70
2018-02-09T16:47:40.851Z,4.80
2018-02-09T16:50:07.274Z,4.60
2018-02-09T16:52:33.564Z,4.60
2018-02-09T16:55:00.240Z,4.60
2018-02-09T16:57:26.664Z,4.60
2018-02-09T16:59:53.467Z,4.70
2018-02-09T17:02:19.809Z,4.70
2018-02-09T17:04:46.097Z,4.70
2018-02-09T17:07:12.444Z,4.50
2018-02-09T17:09:38.878Z,4.40
2018-02-09T17:12:05.184Z,4.40
2018-02-09T17:14:31.503Z,4.60
2018-02-09T17:16:57.808Z,4.60
2018-02-09T17:19:24.483Z,4.60
2018-02-09T17:21:50.814Z,4.60
2018-02-09T17:24:17.063Z,4.50
2018-02-09T17:26:43.354Z,4.40
2018-02-09T17:29:09.714Z,4.50
2018-02-09T17:31:36.011Z,4.50
2018-02-09T17:34:02.325Z,4.40
2018-02-09T17:36:28.997Z,4.30
2018-02-09T17:38:55.308Z,4.30
2018-02-09T17:41:22.605Z,4.30
2018-02-09T17:43:48.944Z,4.40
2018-02-09T17:46:16.050Z,4.40
2018-02-09T17:48:42.330Z,4.40
2018-02-09T17:51:08.649Z,4.40
2018-02-09T17:53:34.994Z,4.50
2018-02-09T17:56:01.382Z,4.50
2018-02-09T17:58:27.694Z,4.50
2018-02-09T18:00:53.987Z,4.50
2018-02-09T18:03:20.307Z,4.50
2018-02-09T18:05:46.633Z,4.50
2018-02-09T18:08:12.956Z,4.40
2018-02-09T18:10:39.313Z,4.60
2018-02-09T18:13:05.938Z,4.40
2018-02-09T18:15:32.362Z,4.30
2018-02-09T18:17:58.686Z,4.20
2018-02-09T18:20:25.298Z,4.30
2018-02-09T18:22:51.810Z,4.30
2018-02-09T18:25:18.202Z,4.40
2018-02-09T18:27:44.654Z,4.40
2018-02-09T18:30:10.910Z,4.30
2018-02-09T18:32:37.258Z,4.30
2018-02-09T18:35:03.613Z,4.30
2018-02-09T18:37:29.967Z,4.30
2018-02-09T18:39:56.262Z,4.20
2018-02-09T18:42:22.675Z,4.20
2018-02-09T18:44:49.032Z,4.20
2018-02-09T18:47:15.394Z,4.20
2018-02-09T18:49:41.649Z,4.20
2018-02-09T18:52:08.313Z,4.10
2018-02-09T18:54:34.599Z,4.10
2018-02-09T18:57:00.922Z,4.10
2018-02-09T18:59:27.782Z,4.10
2018-02-09T19:01:54.530Z,4.00
2018-02-09T19:04:20.815Z,4.00
2018-02-09T19:06:47.246Z,4.00
2018-02-09T19:09:14.345Z,4.00
2018-02-09T19:11:40.713Z,3.80
2018-02-09T19:14:07.061Z,3.80
2018-02-09T19:16:33.380Z,4.10
2018-02-09T19:18:59.803Z,4.20
2018-02-09T19:21:26.167Z,4.20
2018-02-09T19:23:52.507Z,4.20
2018-02-09T19:26:18.839Z,4.20
2018-02-09T19:28:45.148Z,4.20
2018-02-09T19:31:11.421Z,4.20
2018-02-09T19:33:37.680Z,4.20
2018-02-09T19:36:03.988Z,4.20
2018-02-09T19:38:30.287Z,4.20
2018-02-09T19:40:56.976Z,4.20
2018-02-09T19:43:23.285Z,4.20
2018-02-09T19:45:49.550Z,4.20
2018-02-09T19:48:15.893Z,4.10
2018-02-09T19:50:42.267Z,4.20
2018-02-09T19:53:08.565Z,4.20
2018-02-09T19:55:34.950Z,4.30
2018-02-09T19:58:01.259Z,4.30
2018-02-09T20:00:27.590Z,4.30
2018-02-09T20:02:53.916Z,4.00
2018-02-09T20:05:20.733Z,3.80
2018-02-09T20:07:47.108Z,3.70
2018-02-09T20:10:13.450Z,3.80
2018-02-09T20:12:39.775Z,3.40
2018-02-09T20:15:06.163Z,3.20
2018-02-09T20:17:32.881Z,3.10
2018-02-09T20:19:59.213Z,3.10
2018-02-09T20:22:25.474Z,3.20
2018-02-09T20:24:52.248Z,3.40
2018-02-09T20:27:18.623Z,3.40
2018-02-09T20:29:45.023Z,3.10
2018-02-09T20:32:11.321Z,3.20
2018-02-09T20:34:37.744Z,3.20
2018-02-09T20:37:04.068Z,3.20
2018-02-09T20:39:30.752Z,3.00
2018-02-09T20:41:57.113Z,3.00
2018-02-09T20:44:23.552Z,3.10
2018-02-09T20:46:49.892Z,2.90
2018-02-09T20:49:16.192Z,3.10
2018-02-09T20:51:42.532Z,3.00
2018-02-09T20:54:08.902Z,2.90
2018-02-09T20:56:35.149Z,3.10
2018-02-09T20:59:01.527Z,3.10
2018-02-09T21:01:27.795Z,2.90
2018-02-09T21:03:54.195Z,3.00
2018-02-09T21:06:20.474Z,3.30
2018-02-09T21:08:46.781Z,3.30
2018-02-09T21:11:13.541Z,3.40
2018-02-09T21:13:40.847Z,3.50
2018-02-09T21:16:07.275Z,3.70
2018-02-09T21:18:33.658Z,3.60
2018-02-09T21:20:59.935Z,3.40
2018-02-09T21:23:26.263Z,3.30
2018-02-09T21:25:52.529Z,3.40
2018-02-09T21:28:18.845Z,3.50
2018-02-09T21:30:45.487Z,3.40
2018-02-09T21:33:12.181Z,3.70
2018-02-09T21:35:38.476Z,3.60
2018-02-09T21:38:04.748Z,3.70
2018-02-09T21:40:31.064Z,3.70
2018-02-09T21:42:57.462Z,3.80
2018-02-09T21:45:23.854Z,3.70
2018-02-09T21:47:50.104Z,3.70
2018-02-09T21:50:16.808Z,3.60
2018-02-09T21:52:43.103Z,3.70
2018-02-09T21:55:09.404Z,3.70
2018-02-09T21:57:36.056Z,3.40
2018-02-09T22:00:02.488Z,3.40
2018-02-09T22:02:28.903Z,3.40
2018-02-09T22:04:55.608Z,3.70
2018-02-09T22:07:22.069Z,3.70
2018-02-09T22:09:48.388Z,3.60
2018-02-09T22:12:14.713Z,3.60
2018-02-09T22:14:41.070Z,3.30
2018-02-09T22:17:07.710Z,3.30
2018-02-09T22:19:34.432Z,3.20
2018-02-09T22:22:00.766Z,3.20
2018-02-09T22:24:27.076Z,3.30
2018-02-09T22:26:53.424Z,3.20
2018-02-09T22:29:19.745Z,3.00
2018-02-09T22:31:46.054Z,2.80
2018-02-09T22:34:12.350Z,2.90
2018-02-09T22:36:38.637Z,2.60
2018-02-09T22:39:04.983Z,2.60
2018-02-09T22:41:31.675Z,2.80
2018-02-09T22:43:57.944Z,2.70
2018-02-09T22:46:24.254Z,2.60
2018-02-09T22:48:50.702Z,2.70
2018-02-09T22:51:16.968Z,2.60
2018-02-09T22:53:43.282Z,2.50
2018-02-09T22:56:10.047Z,2.80
2018-02-09T22:58:36.365Z,2.80
2018-02-09T23:01:02.753Z,2.60
2018-02-09T23:03:29.415Z,2.70
2018-02-09T23:05:55.791Z,3.00
2018-02-09T23:08:22.118Z,2.80
2018-02-09T23:10:48.470Z,2.70
2018-02-09T23:13:14.717Z,2.60
2018-02-09T23:15:41.009Z,2.70
2018-02-09T23:18:07.250Z,2.80
2018-02-09T23:20:33.603Z,2.70
2018-02-09T23:22:59.829Z,2.60
2018-02-09T23:25:26.067Z,2.80
2018-02-09T23:27:52.437Z,3.00
2018-02-09T23:30:18.743Z,3.10
2018-02-09T23:32:45.372Z,3.00
2018-02-09T23:35:11.698Z,3.10
2018-02-09T23:37:37.923Z,3.10
2018-02-09T23:40:04.161Z,3.10
2018-02-09T23:42:30.453Z,3.20
2018-02-09T23:44:56.680Z,3.20
2018-02-09T23:47:23.389Z,3.10
2018-02-09T23:49:49.662Z,3.20
2018-02-09T23:52:15.992Z,3.30
2018-02-09T23:54:42.329Z,3.10
2018-02-09T23:57:08.560Z,3.00
2018-02-09T23:59:34.833Z,3.10
